Time;durP1;ratioP1;P1;durP2;ratioP2;P2;SDS_P1;SDS_P2;PMS_P1;PMS_P2;Temp;Humidity;BMP_temperature;BMP_pressure;BME280_temperature;BME280_humidity;BME280_pressure;Samples;Min_cycle;Max_cycle;Signal;HPM_P1;HPM_P2
2021/12/11 00:00:14;;;;;;;;;;;3.30;99.90;;;;;;5030743;28;20374;-74
2021/12/11 00:02:42;;;;;;;;;;;3.30;99.90;;;;;;5033014;28;20403;-75
2021/12/11 00:05:10;;;;;;;;;;;3.30;99.90;;;;;;5033850;28;20020;-75
2021/12/11 00:07:37;;;;;;;;;;;3.30;99.90;;;;;;5037980;28;19964;-75
2021/12/11 00:10:09;;;;;;;;;;;3.30;99.90;;;;;;5036245;28;19965;-75
2021/12/11 00:12:37;;;;;;;;;;;3.40;99.90;;;;;;5037345;28;19936;-75
2021/12/11 00:15:07;;;;;;;;;;;3.40;99.90;;;;;;5039688;28;19931;-75
2021/12/11 00:17:35;;;;;;;;;;;3.30;99.90;;;;;;5043292;28;19979;-76
2021/12/11 00:20:03;;;;;;;;;;;3.30;99.90;;;;;;5036180;28;19925;-76
2021/12/11 00:22:31;;;;;;;;;;;3.40;99.90;;;;;;5042723;28;19968;-76
2021/12/11 00:24:59;;;;;;;;;;;3.40;99.90;;;;;;5049964;28;19932;-76
2021/12/11 00:27:27;;;;;;;;;;;3.40;99.90;;;;;;5046621;28;20447;-75
2021/12/11 00:29:54;;;;;;;;;;;3.40;99.90;;;;;;5043228;28;19990;-76
2021/12/11 00:32:24;;;;;;;;;;;3.40;99.90;;;;;;5045705;28;19925;-75
2021/12/11 00:34:52;;;;;;;;;;;3.50;99.90;;;;;;5042295;28;20385;-76
2021/12/11 00:37:20;;;;;;;;;;;3.50;99.90;;;;;;5041393;28;19929;-76
2021/12/11 00:39:48;;;;;;;;;;;3.50;99.90;;;;;;5041103;28;19960;-76
2021/12/11 00:42:15;;;;;;;;;;;3.60;99.90;;;;;;5051423;28;20295;-76
2021/12/11 00:44:43;;;;;;;;;;;3.60;99.90;;;;;;5039536;28;19925;-76
2021/12/11 00:47:11;;;;;;;;;;;3.60;99.90;;;;;;5043798;28;19925;-76
2021/12/11 00:49:45;;;;;;;;;;;3.60;99.90;;;;;;5041261;28;20062;-74
2021/12/11 00:52:12;;;;;;;;;;;3.60;99.90;;;;;;5040985;28;19925;-75
2021/12/11 00:54:39;;;;;;;;;;;3.70;99.90;;;;;;5047092;28;19924;-75
2021/12/11 00:57:06;;;;;;;;;;;3.70;99.90;;;;;;5039294;28;19924;-75
2021/12/11 00:59:33;;;;;;;;;;;3.70;99.90;;;;;;5042124;28;20004;-75
2021/12/11 01:02:01;;;;;;;;;;;3.70;99.90;;;;;;5036073;28;19925;-75
2021/12/11 01:04:28;;;;;;;;;;;3.70;99.90;;;;;;5040115;28;20380;-74
2021/12/11 01:06:58;;;;;;;;;;;3.70;99.90;;;;;;5044477;28;20388;-74
2021/12/11 01:09:26;;;;;;;;;;;3.70;99.90;;;;;;5044579;28;20044;-75
2021/12/11 01:11:58;;;;;;;;;;;3.70;99.90;;;;;;5042622;28;19925;-74
2021/12/11 01:14:31;;;;;;;;;;;3.70;99.90;;;;;;5047734;28;19925;-74
2021/12/11 01:17:03;;;;;;;;;;;3.70;99.90;;;;;;5040719;28;19952;-74
2021/12/11 01:19:36;;;;;;;;;;;3.70;99.90;;;;;;5047926;28;19925;-75
2021/12/11 01:22:11;;;;;;;;;;;3.70;99.90;;;;;;5042793;28;20398;-75
2021/12/11 01:24:43;;;;;;;;;;;3.80;99.90;;;;;;5046256;28;20383;-74
2021/12/11 01:27:11;;;;;;;;;;;3.80;99.90;;;;;;5043522;28;19964;-75
2021/12/11 01:29:38;;;;;;;;;;;3.90;99.90;;;;;;5045834;28;19924;-75
2021/12/11 01:32:06;;;;;;;;;;;3.90;99.90;;;;;;5043217;28;20015;-75
2021/12/11 01:34:32;;;;;;;;;;;3.90;99.90;;;;;;5041059;28;19924;-75
2021/12/11 01:36:59;;;;;;;;;;;4.00;99.90;;;;;;5047787;28;19925;-75
2021/12/11 01:39:29;;;;;;;;;;;4.00;99.90;;;;;;5046481;28;19925;-75
2021/12/11 01:41:56;;;;;;;;;;;4.00;99.90;;;;;;5042505;28;19940;-75
2021/12/11 01:44:26;;;;;;;;;;;4.00;99.90;;;;;;5047323;28;20283;-74
2021/12/11 01:46:58;;;;;;;;;;;4.00;99.90;;;;;;5049032;28;20287;-75
2021/12/11 01:49:25;;;;;;;;;;;4.10;99.90;;;;;;5055972;28;20431;-75
2021/12/11 01:51:55;;;;;;;;;;;4.10;99.90;;;;;;5048943;28;20372;-75
2021/12/11 01:54:24;;;;;;;;;;;4.20;99.90;;;;;;5046160;28;20123;-76
2021/12/11 01:56:59;;;;;;;;;;;4.20;99.90;;;;;;5050067;28;19925;-78
2021/12/11 01:59:27;;;;;;;;;;;4.20;99.90;;;;;;5044243;28;19929;-76
2021/12/11 02:01:56;;;;;;;;;;;4.20;99.90;;;;;;5043763;28;19932;-76
2021/12/11 02:04:26;;;;;;;;;;;4.20;99.90;;;;;;5033687;28;19949;-75
2021/12/11 02:06:53;;;;;;;;;;;4.30;99.90;;;;;;5040190;28;19925;-74
2021/12/11 02:09:23;;;;;;;;;;;4.30;99.90;;;;;;5042223;28;20028;-74
2021/12/11 02:11:51;;;;;;;;;;;4.30;99.90;;;;;;5043059;28;20020;-75
2021/12/11 02:14:25;;;;;;;;;;;4.30;99.90;;;;;;5038695;28;20012;-75
2021/12/11 02:16:52;;;;;;;;;;;4.30;99.90;;;;;;5043126;28;19980;-75
2021/12/11 02:19:22;;;;;;;;;;;4.40;99.90;;;;;;5044243;28;20023;-75
2021/12/11 02:21:51;;;;;;;;;;;4.50;99.90;;;;;;5040359;28;19931;-75
2021/12/11 02:24:24;;;;;;;;;;;4.60;99.90;;;;;;5041582;28;19993;-75
2021/12/11 02:26:52;;;;;;;;;;;4.70;99.90;;;;;;5050302;28;19929;-76
2021/12/11 02:29:21;;;;;;;;;;;4.80;99.90;;;;;;5049821;28;20701;-76
2021/12/11 02:31:53;;;;;;;;;;;4.90;99.90;;;;;;5045719;28;19925;-75
2021/12/11 02:34:22;;;;;;;;;;;5.00;99.90;;;;;;5039179;28;19924;-75
2021/12/11 02:36:53;;;;;;;;;;;5.10;99.90;;;;;;5040477;28;19984;-75
2021/12/11 02:39:24;;;;;;;;;;;5.20;99.90;;;;;;5038058;28;19940;-75
2021/12/11 02:41:53;;;;;;;;;;;5.20;99.90;;;;;;5040989;28;19932;-75
2021/12/11 02:44:22;;;;;;;;;;;5.30;99.90;;;;;;5048601;28;19924;-75
2021/12/11 02:46:52;;;;;;;;;;;5.30;99.90;;;;;;5041925;28;19925;-75
2021/12/11 02:49:20;;;;;;;;;;;5.30;99.90;;;;;;5047573;28;19924;-75
2021/12/11 02:51:49;;;;;;;;;;;5.30;99.90;;;;;;5041290;28;19925;-74
2021/12/11 02:54:18;;;;;;;;;;;5.30;99.90;;;;;;5038793;28;20388;-75
2021/12/11 02:56:47;;;;;;;;;;;5.40;99.90;;;;;;5038985;28;20490;-74
2021/12/11 02:59:15;;;;;;;;;;;5.40;99.90;;;;;;5031637;28;20392;-74
2021/12/11 03:01:44;;;;;;;;;;;5.40;99.90;;;;;;5043431;28;20023;-74
2021/12/11 03:04:18;;;;;;;;;;;5.30;99.90;;;;;;5045316;28;19931;-75
2021/12/11 03:06:47;;;;;;;;;;;5.30;99.90;;;;;;5036973;28;19925;-75
2021/12/11 03:09:15;;;;;;;;;;;5.20;99.90;;;;;;5038316;28;19932;-74
2021/12/11 03:11:42;;;;;;;;;;;5.20;99.90;;;;;;5039707;28;20338;-75
2021/12/11 03:14:14;;;;;;;;;;;5.10;99.90;;;;;;5046078;28;19933;-75
2021/12/11 03:16:42;;;;;;;;;;;5.10;99.90;;;;;;5040359;28;19929;-75
2021/12/11 03:19:13;;;;;;;;;;;5.10;99.90;;;;;;5039235;28;19939;-76
2021/12/11 03:21:40;;;;;;;;;;;5.00;99.90;;;;;;5043320;28;20349;-75
2021/12/11 03:24:07;;;;;;;;;;;5.00;99.90;;;;;;5035420;28;19928;-75
2021/12/11 03:26:34;;;;;;;;;;;4.90;99.90;;;;;;5042913;28;20019;-76
2021/12/11 03:29:00;;;;;;;;;;;4.90;99.90;;;;;;5039219;28;19936;-76
2021/12/11 03:31:29;;;;;;;;;;;4.90;99.90;;;;;;5039468;28;19932;-76
2021/12/11 03:33:57;;;;;;;;;;;4.90;99.90;;;;;;5046465;28;19968;-76
2021/12/11 03:36:27;;;;;;;;;;;4.90;99.90;;;;;;5039379;28;20039;-76
2021/12/11 03:38:56;;;;;;;;;;;4.90;99.90;;;;;;5046438;28;19929;-75
2021/12/11 03:41:24;;;;;;;;;;;4.90;99.90;;;;;;5049392;28;20031;-76
2021/12/11 03:43:51;;;;;;;;;;;4.90;99.90;;;;;;5049169;28;20027;-75
2021/12/11 03:46:19;;;;;;;;;;;4.90;99.90;;;;;;5042773;28;19928;-76
2021/12/11 03:48:48;;;;;;;;;;;4.80;99.90;;;;;;5049680;28;19928;-76
2021/12/11 03:51:17;;;;;;;;;;;4.90;99.90;;;;;;5052074;28;20015;-75
2021/12/11 03:53:44;;;;;;;;;;;5.00;99.90;;;;;;5040040;28;19925;-75
2021/12/11 03:56:12;;;;;;;;;;;5.00;99.90;;;;;;5047207;28;19925;-75
2021/12/11 03:58:39;;;;;;;;;;;5.10;99.90;;;;;;5048861;28;19925;-75
2021/12/11 04:01:08;;;;;;;;;;;5.10;99.90;;;;;;5047842;28;19932;-77
2021/12/11 04:03:35;;;;;;;;;;;5.10;99.90;;;;;;5045524;28;19925;-75
2021/12/11 04:06:05;;;;;;;;;;;5.20;99.90;;;;;;5050408;28;19925;-75
2021/12/11 04:08:34;;;;;;;;;;;5.20;99.90;;;;;;5049527;28;19925;-75
2021/12/11 04:11:00;;;;;;;;;;;5.30;99.90;;;;;;5035575;28;20015;-76
2021/12/11 04:13:27;;;;;;;;;;;5.20;99.90;;;;;;5050223;28;19971;-75
2021/12/11 04:15:55;;;;;;;;;;;5.30;99.90;;;;;;5052224;28;19936;-75
2021/12/11 04:18:22;;;;;;;;;;;5.30;99.90;;;;;;5049922;28;19925;-76
2021/12/11 04:20:49;;;;;;;;;;;5.20;99.90;;;;;;5059250;28;20024;-76
2021/12/11 04:23:18;;;;;;;;;;;5.30;99.90;;;;;;5056161;28;20019;-75
2021/12/11 04:25:46;;;;;;;;;;;5.30;99.90;;;;;;5054330;28;19925;-76
2021/12/11 04:28:16;;;;;;;;;;;5.30;99.90;;;;;;5047577;28;19925;-76
2021/12/11 04:30:43;;;;;;;;;;;5.40;99.90;;;;;;5050784;28;19936;-75
2021/12/11 04:33:09;;;;;;;;;;;5.40;99.90;;;;;;5047215;28;19925;-76
2021/12/11 04:35:36;;;;;;;;;;;5.40;99.90;;;;;;5050100;28;20578;-77
2021/12/11 04:38:05;;;;;;;;;;;5.40;99.90;;;;;;5052046;28;19947;-76
2021/12/11 04:40:36;;;;;;;;;;;5.30;99.90;;;;;;5051561;28;20016;-76
2021/12/11 04:43:06;;;;;;;;;;;5.30;99.90;;;;;;5051749;28;19931;-77
2021/12/11 04:45:35;;;;;;;;;;;5.20;99.90;;;;;;5043453;28;20019;-76
2021/12/11 04:48:10;;;;;;;;;;;5.10;99.90;;;;;;5049597;28;19925;-75
2021/12/11 04:50:43;;;;;;;;;;;5.10;99.90;;;;;;5038232;28;19929;-75
2021/12/11 04:53:25;;;;;;;;;;;5.20;99.90;;;;;;5044381;28;20023;-75
2021/12/11 04:56:14;;;;;;;;;;;5.20;99.90;;;;;;5040158;28;20015;-75
2021/12/11 04:58:54;;;;;;;;;;;5.20;99.90;;;;;;5050968;28;19980;-76
2021/12/11 05:01:43;;;;;;;;;;;5.30;99.90;;;;;;5043814;28;20307;-75
2021/12/11 05:04:31;;;;;;;;;;;5.20;99.90;;;;;;5047970;28;19925;-75
2021/12/11 05:07:04;;;;;;;;;;;5.20;99.90;;;;;;5038816;28;19925;-75
2021/12/11 05:09:38;;;;;;;;;;;5.20;99.90;;;;;;5041360;28;19978;-75
2021/12/11 05:12:13;;;;;;;;;;;5.30;99.90;;;;;;5041706;28;19925;-76
2021/12/11 05:14:41;;;;;;;;;;;5.20;99.90;;;;;;5048344;28;19925;-75
2021/12/11 05:17:08;;;;;;;;;;;5.20;99.90;;;;;;5044228;28;20008;-75
2021/12/11 05:19:35;;;;;;;;;;;5.20;99.90;;;;;;5049823;28;19924;-75
2021/12/11 05:22:02;;;;;;;;;;;5.20;99.90;;;;;;5043239;28;19937;-75
2021/12/11 05:24:29;;;;;;;;;;;5.20;99.90;;;;;;5040630;28;19925;-76
2021/12/11 05:26:55;;;;;;;;;;;5.20;99.90;;;;;;5039660;28;19931;-76
2021/12/11 05:29:23;;;;;;;;;;;5.20;99.90;;;;;;5047385;28;19992;-73
2021/12/11 05:31:50;;;;;;;;;;;5.20;99.90;;;;;;5046050;28;19933;-75
2021/12/11 05:34:17;;;;;;;;;;;5.10;99.90;;;;;;5047154;28;19939;-75
2021/12/11 05:36:43;;;;;;;;;;;5.00;99.90;;;;;;5044879;28;19925;-74
2021/12/11 05:39:12;;;;;;;;;;;4.90;99.90;;;;;;5046047;28;20012;-75
2021/12/11 05:41:39;;;;;;;;;;;4.90;99.90;;;;;;5044981;28;19931;-75
2021/12/11 05:44:07;;;;;;;;;;;4.80;99.90;;;;;;5046606;28;19979;-75
2021/12/11 05:46:35;;;;;;;;;;;4.80;99.90;;;;;;5040650;28;20459;-75
2021/12/11 05:49:01;;;;;;;;;;;4.80;99.90;;;;;;5047771;28;19932;-75
2021/12/11 05:51:30;;;;;;;;;;;4.90;99.90;;;;;;5048918;28;19925;-75
2021/12/11 05:53:59;;;;;;;;;;;4.80;99.90;;;;;;5047997;28;19933;-76
2021/12/11 05:56:32;;;;;;;;;;;4.70;99.90;;;;;;5050680;28;19959;-76
2021/12/11 05:58:59;;;;;;;;;;;4.60;99.90;;;;;;5052563;28;19924;-75
2021/12/11 06:01:31;;;;;;;;;;;4.50;99.90;;;;;;5049143;28;20019;-75
2021/12/11 06:04:00;;;;;;;;;;;4.40;99.90;;;;;;5047465;28;19924;-75
2021/12/11 06:06:27;;;;;;;;;;;4.40;99.90;;;;;;5043903;28;19926;-76
2021/12/11 06:08:53;;;;;;;;;;;4.30;99.90;;;;;;5048941;28;20024;-75
2021/12/11 06:11:20;;;;;;;;;;;4.20;99.90;;;;;;5043886;28;20376;-76
2021/12/11 06:13:47;;;;;;;;;;;4.20;99.90;;;;;;5049409;28;22244;-76
2021/12/11 06:16:14;;;;;;;;;;;4.10;99.90;;;;;;5046671;28;20506;-77
2021/12/11 06:18:42;;;;;;;;;;;4.10;99.90;;;;;;5047901;28;19939;-77
2021/12/11 06:21:10;;;;;;;;;;;3.90;99.90;;;;;;5040342;28;19925;-77
2021/12/11 06:23:37;;;;;;;;;;;3.90;99.90;;;;;;5043911;28;19953;-77
2021/12/11 06:26:06;;;;;;;;;;;3.80;99.90;;;;;;5042390;28;19996;-78
2021/12/11 06:28:33;;;;;;;;;;;3.80;99.90;;;;;;5041764;28;20360;-78
2021/12/11 06:31:02;;;;;;;;;;;3.70;99.90;;;;;;5048153;28;19948;-80
2021/12/11 06:33:30;;;;;;;;;;;3.70;99.90;;;;;;5055105;28;19925;-81
2021/12/11 06:35:59;;;;;;;;;;;3.70;99.90;;;;;;5055405;28;19925;-80
2021/12/11 06:38:28;;;;;;;;;;;3.70;99.90;;;;;;5050640;28;20015;-79
2021/12/11 06:40:55;;;;;;;;;;;3.60;99.90;;;;;;5052143;28;19950;-77
2021/12/11 06:43:23;;;;;;;;;;;3.60;99.90;;;;;;5045076;28;20007;-77
2021/12/11 06:45:50;;;;;;;;;;;3.60;99.90;;;;;;5051560;28;20025;-77
2021/12/11 06:48:17;;;;;;;;;;;3.50;99.90;;;;;;5047917;28;20053;-78
2021/12/11 06:50:44;;;;;;;;;;;3.50;99.90;;;;;;5051997;28;19929;-77
2021/12/11 06:53:14;;;;;;;;;;;3.40;99.90;;;;;;5046407;28;19931;-77
2021/12/11 06:55:42;;;;;;;;;;;3.40;99.90;;;;;;5044818;28;19931;-78
2021/12/11 06:58:08;;;;;;;;;;;3.40;99.90;;;;;;5046428;28;19939;-76
2021/12/11 07:00:35;;;;;;;;;;;3.40;99.90;;;;;;5043201;28;20446;-76
2021/12/11 07:03:02;;;;;;;;;;;3.40;99.90;;;;;;5040594;28;19932;-75
2021/12/11 07:05:29;;;;;;;;;;;3.30;99.90;;;;;;5038927;28;20020;-74
2021/12/11 07:07:56;;;;;;;;;;;3.30;99.90;;;;;;5041206;28;20363;-74
2021/12/11 07:10:23;;;;;;;;;;;3.30;99.90;;;;;;5044977;28;19963;-74
2021/12/11 07:12:51;;;;;;;;;;;3.20;99.90;;;;;;5047505;28;19924;-75
2021/12/11 07:15:19;;;;;;;;;;;3.20;99.90;;;;;;5052621;28;19935;-72
2021/12/11 07:17:45;;;;;;;;;;;3.10;99.90;;;;;;5048386;28;19931;-74
2021/12/11 07:20:13;;;;;;;;;;;3.10;99.90;;;;;;5049800;28;19925;-73
2021/12/11 07:22:41;;;;;;;;;;;3.10;99.90;;;;;;5041840;28;20003;-71
2021/12/11 07:25:10;;;;;;;;;;;3.10;99.90;;;;;;5045780;28;19943;-73
2021/12/11 07:27:37;;;;;;;;;;;3.10;99.90;;;;;;5038657;28;20034;-72
2021/12/11 07:30:06;;;;;;;;;;;3.00;99.90;;;;;;5045650;28;19978;-72
2021/12/11 07:32:33;;;;;;;;;;;3.00;99.90;;;;;;5030205;28;20042;-73
2021/12/11 07:35:00;;;;;;;;;;;3.00;99.90;;;;;;5039976;28;20013;-73
2021/12/11 07:37:26;;;;;;;;;;;3.00;99.90;;;;;;5042738;28;19933;-73
2021/12/11 07:39:53;;;;;;;;;;;3.00;99.90;;;;;;5046599;28;20019;-73
2021/12/11 07:42:20;;;;;;;;;;;3.00;99.90;;;;;;5039533;28;19931;-74
2021/12/11 07:44:47;;;;;;;;;;;3.10;99.90;;;;;;5040417;28;20059;-75
2021/12/11 07:47:17;;;;;;;;;;;3.10;99.90;;;;;;5039861;28;20012;-74
2021/12/11 07:49:44;;;;;;;;;;;3.10;99.90;;;;;;5047159;28;19924;-74
2021/12/11 07:52:11;;;;;;;;;;;3.10;99.90;;;;;;5045942;28;19971;-74
2021/12/11 07:54:38;;;;;;;;;;;3.10;99.90;;;;;;5045715;28;20295;-74
2021/12/11 07:57:05;;;;;;;;;;;3.00;99.90;;;;;;5039429;28;20036;-72
2021/12/11 07:59:34;;;;;;;;;;;3.10;99.90;;;;;;5033598;28;20330;-73
2021/12/11 08:02:02;;;;;;;;;;;3.10;99.90;;;;;;5031816;28;19936;-73
2021/12/11 08:04:30;;;;;;;;;;;3.10;99.90;;;;;;5031111;28;20020;-74
2021/12/11 08:06:58;;;;;;;;;;;3.10;99.90;;;;;;5031279;28;20466;-74
2021/12/11 08:09:25;;;;;;;;;;;3.10;99.90;;;;;;5030953;28;19935;-75
2021/12/11 08:11:55;;;;;;;;;;;3.10;99.90;;;;;;5033637;28;19928;-78
2021/12/11 08:14:23;;;;;;;;;;;3.10;99.90;;;;;;5031044;28;20017;-74
2021/12/11 08:16:54;;;;;;;;;;;3.10;99.90;;;;;;5032037;28;19939;-72
2021/12/11 08:19:23;;;;;;;;;;;3.10;99.90;;;;;;5031266;28;19985;-74
2021/12/11 08:21:52;;;;;;;;;;;3.10;99.90;;;;;;5032201;28;20311;-74
2021/12/11 08:24:19;;;;;;;;;;;3.20;99.90;;;;;;5030680;28;20004;-74
2021/12/11 08:26:47;;;;;;;;;;;3.20;99.90;;;;;;5037831;28;20023;-74
2021/12/11 08:29:15;;;;;;;;;;;3.20;99.90;;;;;;5034112;28;20861;-74
2021/12/11 08:31:43;;;;;;;;;;;3.20;99.90;;;;;;5033044;28;19932;-73
2021/12/11 08:34:10;;;;;;;;;;;3.30;99.90;;;;;;5039122;28;19924;-74
2021/12/11 08:36:37;;;;;;;;;;;3.40;99.90;;;;;;5038325;28;19932;-73
2021/12/11 08:39:06;;;;;;;;;;;3.40;99.90;;;;;;5029614;28;19947;-74
2021/12/11 08:41:33;;;;;;;;;;;3.50;99.90;;;;;;5030447;28;19931;-72
2021/12/11 08:44:06;;;;;;;;;;;3.80;99.90;;;;;;5030513;28;19941;-73
2021/12/11 08:46:35;;;;;;;;;;;4.80;99.90;;;;;;5028417;28;19947;-72
2021/12/11 08:49:04;;;;;;;;;;;5.70;99.90;;;;;;5028968;28;20288;-73
2021/12/11 08:51:33;;;;;;;;;;;5.90;99.90;;;;;;5029599;28;19933;-72
2021/12/11 08:54:03;;;;;;;;;;;6.10;99.90;;;;;;5029384;28;20013;-73
2021/12/11 08:56:31;;;;;;;;;;;6.00;99.90;;;;;;5029503;28;19937;-73
2021/12/11 08:58:58;;;;;;;;;;;6.10;99.90;;;;;;5027577;28;19931;-73
2021/12/11 09:01:28;;;;;;;;;;;6.30;99.90;;;;;;5028579;28;20433;-74
2021/12/11 09:04:01;;;;;;;;;;;6.70;99.90;;;;;;5029004;28;19933;-75
2021/12/11 09:06:31;;;;;;;;;;;7.20;99.90;;;;;;5030461;28;19968;-76
2021/12/11 09:09:01;;;;;;;;;;;7.80;99.90;;;;;;5039603;28;19984;-75
2021/12/11 09:11:29;;;;;;;;;;;8.00;99.90;;;;;;5041885;28;19929;-74
2021/12/11 09:14:00;;;;;;;;;;;8.30;99.90;;;;;;5043026;28;20298;-76
2021/12/11 09:16:30;;;;;;;;;;;7.90;99.90;;;;;;5052433;28;19924;-74
2021/12/11 09:18:58;;;;;;;;;;;7.40;99.90;;;;;;5043941;28;20016;-74
2021/12/11 09:21:29;;;;;;;;;;;6.70;99.90;;;;;;5038747;28;20019;-74
2021/12/11 09:24:03;;;;;;;;;;;5.90;99.90;;;;;;5030992;28;19998;-74
2021/12/11 09:26:32;;;;;;;;;;;5.30;99.90;;;;;;5042049;28;19924;-73
2021/12/11 09:29:02;;;;;;;;;;;5.00;99.90;;;;;;5045742;28;19925;-75
2021/12/11 09:31:32;;;;;;;;;;;4.90;99.90;;;;;;5045923;28;20067;-74
2021/12/11 09:34:00;;;;;;;;;;;4.80;99.90;;;;;;5037908;28;19925;-74
2021/12/11 09:36:30;;;;;;;;;;;4.80;99.90;;;;;;5043881;28;19924;-74
2021/12/11 09:39:04;;;;;;;;;;;4.80;99.90;;;;;;5033336;28;23226;-74
2021/12/11 09:41:38;;;;;;;;;;;4.90;99.90;;;;;;5040814;28;19928;-74
2021/12/11 09:44:09;;;;;;;;;;;4.90;99.90;;;;;;5041247;28;21075;-74
2021/12/11 09:46:46;;;;;;;;;;;5.00;99.90;;;;;;5039318;28;19995;-77
2021/12/11 09:49:15;;;;;;;;;;;5.10;99.90;;;;;;5037118;28;19964;-74
2021/12/11 09:51:46;;;;;;;;;;;5.20;99.90;;;;;;5034327;28;20518;-74
2021/12/11 09:54:15;;;;;;;;;;;5.20;99.90;;;;;;5037513;28;19925;-74
2021/12/11 09:56:46;;;;;;;;;;;5.30;99.90;;;;;;5045771;28;20411;-73
2021/12/11 09:59:16;;;;;;;;;;;5.30;99.90;;;;;;5034157;28;20038;-74
2021/12/11 10:01:44;;;;;;;;;;;5.40;99.90;;;;;;5040431;28;19943;-73
2021/12/11 10:04:13;;;;;;;;;;;5.40;99.90;;;;;;5038230;28;19990;-73
2021/12/11 10:06:44;;;;;;;;;;;5.40;99.90;;;;;;5044330;28;19952;-74
2021/12/11 10:09:19;;;;;;;;;;;5.40;99.90;;;;;;5037946;28;19933;-73
2021/12/11 10:11:51;;;;;;;;;;;5.50;99.90;;;;;;5038985;28;19960;-74
2021/12/11 10:14:22;;;;;;;;;;;5.50;99.90;;;;;;5040017;28;19929;-73
2021/12/11 10:16:51;;;;;;;;;;;5.50;99.90;;;;;;5045447;28;19925;-73
2021/12/11 10:19:24;;;;;;;;;;;5.50;99.90;;;;;;5039404;28;20024;-74
2021/12/11 10:21:52;;;;;;;;;;;5.50;99.90;;;;;;5039185;28;19925;-74
2021/12/11 10:24:22;;;;;;;;;;;5.50;99.90;;;;;;5036524;28;20036;-72
2021/12/11 10:26:50;;;;;;;;;;;5.60;99.90;;;;;;5032116;28;20003;-73
2021/12/11 10:29:17;;;;;;;;;;;5.60;99.90;;;;;;5038689;28;20404;-73
2021/12/11 10:31:47;;;;;;;;;;;5.70;99.90;;;;;;5040887;28;19947;-75
2021/12/11 10:34:16;;;;;;;;;;;5.80;99.90;;;;;;5047328;28;19973;-74
2021/12/11 10:36:45;;;;;;;;;;;5.80;99.90;;;;;;5041596;28;20490;-75
2021/12/11 10:39:13;;;;;;;;;;;5.80;99.90;;;;;;5037546;28;20343;-74
2021/12/11 10:41:40;;;;;;;;;;;5.90;99.90;;;;;;5039337;28;20029;-75
2021/12/11 10:44:11;;;;;;;;;;;5.90;99.90;;;;;;5039594;28;19924;-74
2021/12/11 10:46:40;;;;;;;;;;;6.00;99.90;;;;;;5043535;28;20279;-74
2021/12/11 10:49:10;;;;;;;;;;;6.10;99.90;;;;;;5040898;28;20022;-74
2021/12/11 10:51:40;;;;;;;;;;;6.10;99.90;;;;;;5036208;28;19951;-74
2021/12/11 10:54:06;;;;;;;;;;;6.10;99.90;;;;;;5034709;28;19929;-73
2021/12/11 10:56:33;;;;;;;;;;;6.20;99.90;;;;;;5033286;28;19939;-71
2021/12/11 10:59:01;;;;;;;;;;;6.20;99.90;;;;;;5031156;28;19925;-75
2021/12/11 11:01:30;;;;;;;;;;;6.20;99.90;;;;;;5036046;28;19932;-73
2021/12/11 11:03:59;;;;;;;;;;;6.30;99.90;;;;;;5037190;28;19933;-74
2021/12/11 11:06:27;;;;;;;;;;;6.30;99.90;;;;;;5036891;28;19932;-74
2021/12/11 11:08:54;;;;;;;;;;;6.40;99.90;;;;;;5032743;28;19929;-72
2021/12/11 11:11:23;;;;;;;;;;;6.50;99.90;;;;;;5036159;28;19956;-76
2021/12/11 11:13:50;;;;;;;;;;;6.50;99.90;;;;;;5035532;28;19992;-73
2021/12/11 11:16:20;;;;;;;;;;;6.50;99.90;;;;;;5037432;28;19929;-72
2021/12/11 11:18:47;;;;;;;;;;;6.60;99.90;;;;;;5036341;28;20013;-73
2021/12/11 11:21:15;;;;;;;;;;;6.60;99.90;;;;;;5037918;28;19924;-74
2021/12/11 11:23:45;;;;;;;;;;;6.60;99.90;;;;;;5036518;28;20344;-75
2021/12/11 11:26:12;;;;;;;;;;;6.70;99.90;;;;;;5037231;28;19933;-74
2021/12/11 11:28:40;;;;;;;;;;;6.70;99.90;;;;;;5041287;28;20349;-71
2021/12/11 11:31:08;;;;;;;;;;;6.80;99.90;;;;;;5039559;28;19925;-74
2021/12/11 11:33:40;;;;;;;;;;;6.90;99.90;;;;;;5038056;28;20193;-75
2021/12/11 11:36:09;;;;;;;;;;;6.80;99.90;;;;;;5042323;28;19948;-76
2021/12/11 11:38:37;;;;;;;;;;;6.90;99.90;;;;;;5037167;28;20595;-79
2021/12/11 11:41:07;;;;;;;;;;;7.00;99.90;;;;;;5041745;28;19975;-77
2021/12/11 11:43:34;;;;;;;;;;;7.00;99.90;;;;;;5041299;28;19975;-78
2021/12/11 11:46:03;;;;;;;;;;;7.10;99.90;;;;;;5037236;28;19925;-77
2021/12/11 11:48:32;;;;;;;;;;;7.00;99.90;;;;;;5039739;28;19987;-77
2021/12/11 11:51:05;;;;;;;;;;;6.90;99.90;;;;;;5031910;28;20027;-75
2021/12/11 11:53:32;;;;;;;;;;;6.90;99.90;;;;;;5037827;28;19929;-75
2021/12/11 11:56:06;;;;;;;;;;;6.90;99.90;;;;;;5040774;28;19972;-77
2021/12/11 11:58:35;;;;;;;;;;;7.00;99.90;;;;;;5029826;28;19979;-74
2021/12/11 12:01:06;;;;;;;;;;;7.00;99.90;;;;;;5041067;28;19933;-74
2021/12/11 12:03:33;;;;;;;;;;;7.00;99.90;;;;;;5029540;28;19932;-72
2021/12/11 12:06:01;;;;;;;;;;;7.10;99.90;;;;;;5040387;28;19933;-76
2021/12/11 12:08:29;;;;;;;;;;;7.00;99.90;;;;;;5037750;28;20388;-75
2021/12/11 12:10:56;;;;;;;;;;;7.00;99.90;;;;;;5040945;28;19924;-75
2021/12/11 12:13:24;;;;;;;;;;;7.00;99.90;;;;;;5035163;28;20415;-76
2021/12/11 12:15:54;;;;;;;;;;;7.10;99.90;;;;;;5040131;28;19929;-75
2021/12/11 12:18:21;;;;;;;;;;;7.20;99.90;;;;;;5038396;28;19935;-77
2021/12/11 12:20:49;;;;;;;;;;;7.20;99.90;;;;;;5042994;28;20395;-76
2021/12/11 12:23:16;;;;;;;;;;;7.10;99.90;;;;;;5033091;28;19924;-79
2021/12/11 12:25:44;;;;;;;;;;;7.10;99.90;;;;;;5035486;28;19933;-74
2021/12/11 12:28:10;;;;;;;;;;;7.10;99.90;;;;;;5040235;28;19931;-74
2021/12/11 12:30:40;;;;;;;;;;;7.10;99.90;;;;;;5037710;28;20018;-76
2021/12/11 12:33:10;;;;;;;;;;;7.30;99.90;;;;;;5038075;28;19933;-75
2021/12/11 12:35:37;;;;;;;;;;;7.80;99.90;;;;;;5043162;28;19971;-75
2021/12/11 12:38:05;;;;;;;;;;;7.90;99.90;;;;;;5039614;28;19976;-75
2021/12/11 12:40:34;;;;;;;;;;;7.80;99.90;;;;;;5042965;28;19938;-75
2021/12/11 12:43:09;;;;;;;;;;;7.70;99.90;;;;;;5039441;28;20019;-75
2021/12/11 12:45:37;;;;;;;;;;;7.60;99.90;;;;;;5039543;28;20331;-74
2021/12/11 12:48:06;;;;;;;;;;;7.50;99.90;;;;;;5036492;28;19925;-75
2021/12/11 12:50:36;;;;;;;;;;;7.60;99.90;;;;;;5045019;28;19932;-72
2021/12/11 12:53:03;;;;;;;;;;;7.40;99.90;;;;;;5037717;28;20302;-72
2021/12/11 12:55:31;;;;;;;;;;;7.30;99.90;;;;;;5043713;28;20012;-72
2021/12/11 12:58:01;;;;;;;;;;;7.20;99.90;;;;;;5038501;28;19925;-75
2021/12/11 13:00:30;;;;;;;;;;;7.10;99.90;;;;;;5037964;28;20461;-74
2021/12/11 13:02:58;;;;;;;;;;;7.00;99.90;;;;;;5039065;28;19949;-75
2021/12/11 13:05:26;;;;;;;;;;;7.00;99.90;;;;;;5042670;28;20027;-74
2021/12/11 13:07:56;;;;;;;;;;;6.90;99.90;;;;;;5043066;28;19925;-75
2021/12/11 13:10:25;;;;;;;;;;;7.00;99.90;;;;;;5043552;28;20066;-74
2021/12/11 13:12:52;;;;;;;;;;;7.00;99.90;;;;;;5031371;28;19931;-75
2021/12/11 13:15:21;;;;;;;;;;;6.90;99.90;;;;;;5039598;28;19940;-75
2021/12/11 13:17:49;;;;;;;;;;;6.80;99.90;;;;;;5037036;28;20015;-74
2021/12/11 13:20:18;;;;;;;;;;;6.80;99.90;;;;;;5043601;28;19975;-74
2021/12/11 13:22:46;;;;;;;;;;;6.80;99.90;;;;;;5041207;28;20407;-74
2021/12/11 13:25:19;;;;;;;;;;;6.80;99.90;;;;;;5040715;28;19925;-74
2021/12/11 13:27:46;;;;;;;;;;;6.70;99.90;;;;;;5042597;28;19929;-75
2021/12/11 13:30:15;;;;;;;;;;;6.70;99.90;;;;;;5040083;28;19929;-73
2021/12/11 13:32:42;;;;;;;;;;;6.70;99.90;;;;;;5044876;28;20016;-76
2021/12/11 13:35:11;;;;;;;;;;;6.70;99.90;;;;;;5040414;28;19933;-75
2021/12/11 13:37:39;;;;;;;;;;;6.70;99.90;;;;;;5038282;28;19956;-76
2021/12/11 13:40:07;;;;;;;;;;;6.70;99.90;;;;;;5037704;28;21125;-74
2021/12/11 13:42:37;;;;;;;;;;;6.80;99.90;;;;;;5044411;28;20150;-75
2021/12/11 13:45:06;;;;;;;;;;;6.80;99.90;;;;;;5043868;28;19924;-74
2021/12/11 13:47:35;;;;;;;;;;;7.00;99.90;;;;;;5048573;28;19947;-76
2021/12/11 13:50:04;;;;;;;;;;;7.00;99.90;;;;;;5049271;28;19925;-77
2021/12/11 13:52:32;;;;;;;;;;;7.00;99.90;;;;;;5042209;28;20016;-74
2021/12/11 13:54:59;;;;;;;;;;;7.00;99.90;;;;;;5040947;28;19947;-74
2021/12/11 13:57:27;;;;;;;;;;;7.10;99.90;;;;;;5046241;28;19924;-75
2021/12/11 13:59:56;;;;;;;;;;;7.00;99.90;;;;;;5040618;28;19928;-74
2021/12/11 14:02:24;;;;;;;;;;;6.90;99.90;;;;;;5044201;28;20015;-73
2021/12/11 14:04:52;;;;;;;;;;;6.70;99.90;;;;;;5040409;28;19929;-76
2021/12/11 14:07:21;;;;;;;;;;;6.70;99.90;;;;;;5046857;28;19991;-76
2021/12/11 14:09:52;;;;;;;;;;;6.70;99.90;;;;;;5040189;28;19925;-75
2021/12/11 14:12:20;;;;;;;;;;;6.60;99.90;;;;;;5045727;28;19929;-75
2021/12/11 14:14:47;;;;;;;;;;;6.60;99.90;;;;;;5040736;28;19964;-74
2021/12/11 14:17:15;;;;;;;;;;;6.60;99.90;;;;;;5038657;28;19925;-74
2021/12/11 14:19:44;;;;;;;;;;;6.70;99.90;;;;;;5043398;28;19932;-73
2021/12/11 14:22:11;;;;;;;;;;;6.60;99.90;;;;;;5044151;28;20031;-75
2021/12/11 14:24:42;;;;;;;;;;;6.60;99.90;;;;;;5043377;28;20280;-74
2021/12/11 14:27:13;;;;;;;;;;;6.60;99.90;;;;;;5035297;28;20016;-74
2021/12/11 14:29:43;;;;;;;;;;;6.60;99.90;;;;;;5042502;28;19925;-72
2021/12/11 14:32:09;;;;;;;;;;;6.60;99.90;;;;;;5041857;28;19943;-74
2021/12/11 14:34:38;;;;;;;;;;;6.60;99.90;;;;;;5026740;28;19931;-75
2021/12/11 14:37:05;;;;;;;;;;;6.60;99.90;;;;;;5039823;28;19933;-74
2021/12/11 14:39:32;;;;;;;;;;;6.60;99.90;;;;;;5036631;28;19976;-74